sensor_id;sensor_type;location;lat;lon;timestamp;temperature;humidity
28244;DHT22;15510;52.512;13.300;2022-07-03T00:01:03;21.00;81.50
28244;DHT22;15510;52.512;13.300;2022-07-03T00:03:29;21.00;81.70
28244;DHT22;15510;52.512;13.300;2022-07-03T00:05:55;21.00;82.40
28244;DHT22;15510;52.512;13.300;2022-07-03T00:08:21;20.90;82.90
28244;DHT22;15510;52.512;13.300;2022-07-03T00:10:47;21.00;83.00
28244;DHT22;15510;52.512;13.300;2022-07-03T00:13:13;20.90;83.50
28244;DHT22;15510;52.512;13.300;2022-07-03T00:15:39;20.90;84.10
28244;DHT22;15510;52.512;13.300;2022-07-03T00:18:05;20.90;84.20
28244;DHT22;15510;52.512;13.300;2022-07-03T00:20:38;20.90;84.60
28244;DHT22;15510;52.512;13.300;2022-07-03T00:23:08;20.80;85.30
28244;DHT22;15510;52.512;13.300;2022-07-03T00:25:35;20.80;85.50
28244;DHT22;15510;52.512;13.300;2022-07-03T00:28:02;20.80;86.00
28244;DHT22;15510;52.512;13.300;2022-07-03T00:30:28;20.80;86.70
28244;DHT22;15510;52.512;13.300;2022-07-03T00:32:54;20.80;86.80
28244;DHT22;15510;52.512;13.300;2022-07-03T00:35:20;20.80;86.90
28244;DHT22;15510;52.512;13.300;2022-07-03T00:37:46;20.70;88.10
28244;DHT22;15510;52.512;13.300;2022-07-03T00:40:12;20.70;88.50
28244;DHT22;15510;52.512;13.300;2022-07-03T00:42:38;20.70;88.90
28244;DHT22;15510;52.512;13.300;2022-07-03T00:45:07;20.70;90.40
28244;DHT22;15510;52.512;13.300;2022-07-03T00:47:35;20.70;90.20
28244;DHT22;15510;52.512;13.300;2022-07-03T00:50:06;20.60;90.20
28244;DHT22;15510;52.512;13.300;2022-07-03T00:52:33;20.60;90.40
28244;DHT22;15510;52.512;13.300;2022-07-03T00:54:59;20.60;90.70
28244;DHT22;15510;52.512;13.300;2022-07-03T00:57:29;20.50;90.90
28244;DHT22;15510;52.512;13.300;2022-07-03T00:59:55;20.40;91.30
28244;DHT22;15510;52.512;13.300;2022-07-03T01:02:40;20.40;92.00
28244;DHT22;15510;52.512;13.300;2022-07-03T01:05:26;20.40;91.90
28244;DHT22;15510;52.512;13.300;2022-07-03T01:08:14;20.40;92.20
28244;DHT22;15510;52.512;13.300;2022-07-03T01:19:17;20.20;93.80
28244;DHT22;15510;52.512;13.300;2022-07-03T01:24:48;20.20;94.30
28244;DHT22;15510;52.512;13.300;2022-07-03T01:27:28;20.20;94.40
28244;DHT22;15510;52.512;13.300;2022-07-03T01:30:08;20.20;94.70
28244;DHT22;15510;52.512;13.300;2022-07-03T01:32:46;20.20;95.20
28244;DHT22;15510;52.512;13.300;2022-07-03T01:35:17;20.10;95.40
28244;DHT22;15510;52.512;13.300;2022-07-03T01:37:45;20.10;95.70
28244;DHT22;15510;52.512;13.300;2022-07-03T01:40:11;20.10;95.90
28244;DHT22;15510;52.512;13.300;2022-07-03T01:42:39;20.00;96.20
28244;DHT22;15510;52.512;13.300;2022-07-03T01:45:09;20.10;96.50
28244;DHT22;15510;52.512;13.300;2022-07-03T01:47:40;20.10;96.60
28244;DHT22;15510;52.512;13.300;2022-07-03T01:50:10;20.00;96.80
28244;DHT22;15510;52.512;13.300;2022-07-03T01:52:38;20.00;97.70
28244;DHT22;15510;52.512;13.300;2022-07-03T01:55:05;19.90;97.70
28244;DHT22;15510;52.512;13.300;2022-07-03T01:57:41;19.90;97.80
28244;DHT22;15510;52.512;13.300;2022-07-03T02:00:07;19.90;98.00
28244;DHT22;15510;52.512;13.300;2022-07-03T02:02:42;19.90;98.30
28244;DHT22;15510;52.512;13.300;2022-07-03T02:05:26;19.90;98.30
28244;DHT22;15510;52.512;13.300;2022-07-03T02:08:06;19.90;98.40
28244;DHT22;15510;52.512;13.300;2022-07-03T02:10:42;19.90;98.40
28244;DHT22;15510;52.512;13.300;2022-07-03T02:13:28;19.90;98.80
28244;DHT22;15510;52.512;13.300;2022-07-03T02:15:57;19.90;99.00
28244;DHT22;15510;52.512;13.300;2022-07-03T02:18:36;19.80;99.30
28244;DHT22;15510;52.512;13.300;2022-07-03T02:21:18;19.80;99.50
28244;DHT22;15510;52.512;13.300;2022-07-03T02:23:57;19.80;99.80
28244;DHT22;15510;52.512;13.300;2022-07-03T02:26:34;19.70;99.90
28244;DHT22;15510;52.512;13.300;2022-07-03T02:29:07;19.80;99.90
28244;DHT22;15510;52.512;13.300;2022-07-03T02:31:42;19.70;99.90
28244;DHT22;15510;52.512;13.300;2022-07-03T02:34:08;19.70;99.90
28244;DHT22;15510;52.512;13.300;2022-07-03T02:36:37;19.80;99.90
28244;DHT22;15510;52.512;13.300;2022-07-03T02:39:10;19.70;99.90
28244;DHT22;15510;52.512;13.300;2022-07-03T02:41:46;19.70;99.90
28244;DHT22;15510;52.512;13.300;2022-07-03T02:44:38;19.60;99.90
28244;DHT22;15510;52.512;13.300;2022-07-03T02:47:19;19.60;99.90
28244;DHT22;15510;52.512;13.300;2022-07-03T02:50:02;19.60;99.90
28244;DHT22;15510;52.512;13.300;2022-07-03T02:55:26;19.60;99.90
28244;DHT22;15510;52.512;13.300;2022-07-03T02:58:27;19.60;99.90
28244;DHT22;15510;52.512;13.300;2022-07-03T03:01:07;19.50;99.90
28244;DHT22;15510;52.512;13.300;2022-07-03T03:03:34;19.50;99.90
28244;DHT22;15510;52.512;13.300;2022-07-03T03:06:08;19.50;99.90
28244;DHT22;15510;52.512;13.300;2022-07-03T03:08:42;19.50;99.90
28244;DHT22;15510;52.512;13.300;2022-07-03T03:11:44;19.50;99.90
28244;DHT22;15510;52.512;13.300;2022-07-03T03:14:15;19.40;99.90
28244;DHT22;15510;52.512;13.300;2022-07-03T03:16:53;19.40;99.90
28244;DHT22;15510;52.512;13.300;2022-07-03T03:19:23;19.30;99.90
28244;DHT22;15510;52.512;13.300;2022-07-03T03:21:58;19.30;99.90
28244;DHT22;15510;52.512;13.300;2022-07-03T03:24:24;19.40;99.90
28244;DHT22;15510;52.512;13.300;2022-07-03T03:26:50;19.40;99.90
28244;DHT22;15510;52.512;13.300;2022-07-03T03:29:16;19.40;99.90
28244;DHT22;15510;52.512;13.300;2022-07-03T03:31:42;19.40;99.90
28244;DHT22;15510;52.512;13.300;2022-07-03T03:34:09;19.40;99.90
28244;DHT22;15510;52.512;13.300;2022-07-03T03:36:35;19.40;99.90
28244;DHT22;15510;52.512;13.300;2022-07-03T03:39:01;19.30;99.90
28244;DHT22;15510;52.512;13.300;2022-07-03T03:41:27;19.40;99.90
28244;DHT22;15510;52.512;13.300;2022-07-03T03:43:52;19.40;99.90
28244;DHT22;15510;52.512;13.300;2022-07-03T03:46:18;19.50;99.90
28244;DHT22;15510;52.512;13.300;2022-07-03T03:48:44;19.50;99.90
28244;DHT22;15510;52.512;13.300;2022-07-03T03:51:10;19.50;99.90
28244;DHT22;15510;52.512;13.300;2022-07-03T03:53:35;19.50;99.90
28244;DHT22;15510;52.512;13.300;2022-07-03T03:56:05;19.50;99.90
28244;DHT22;15510;52.512;13.300;2022-07-03T03:58:34;19.40;99.90
28244;DHT22;15510;52.512;13.300;2022-07-03T04:01:02;19.40;99.90
28244;DHT22;15510;52.512;13.300;2022-07-03T04:03:29;19.30;99.90
28244;DHT22;15510;52.512;13.300;2022-07-03T04:05:55;19.30;99.90
28244;DHT22;15510;52.512;13.300;2022-07-03T04:08:22;19.30;99.90
28244;DHT22;15510;52.512;13.300;2022-07-03T04:10:48;19.30;99.90
28244;DHT22;15510;52.512;13.300;2022-07-03T04:13:14;19.30;99.90
28244;DHT22;15510;52.512;13.300;2022-07-03T04:15:40;19.40;99.90
28244;DHT22;15510;52.512;13.300;2022-07-03T04:18:06;19.40;99.90
28244;DHT22;15510;52.512;13.300;2022-07-03T04:20:32;19.40;99.90
28244;DHT22;15510;52.512;13.300;2022-07-03T04:22:58;19.50;99.90
28244;DHT22;15510;52.512;13.300;2022-07-03T04:25:24;19.50;99.90
28244;DHT22;15510;52.512;13.300;2022-07-03T04:27:49;19.50;99.90
28244;DHT22;15510;52.512;13.300;2022-07-03T04:30:15;19.50;99.90
28244;DHT22;15510;52.512;13.300;2022-07-03T04:32:41;19.50;99.90
28244;DHT22;15510;52.512;13.300;2022-07-03T04:35:08;19.60;99.90
28244;DHT22;15510;52.512;13.300;2022-07-03T04:37:34;19.60;99.90
28244;DHT22;15510;52.512;13.300;2022-07-03T04:39:59;19.60;99.90
28244;DHT22;15510;52.512;13.300;2022-07-03T04:42:25;19.60;99.90
28244;DHT22;15510;52.512;13.300;2022-07-03T04:44:51;19.70;99.90
28244;DHT22;15510;52.512;13.300;2022-07-03T04:47:16;19.70;99.90
28244;DHT22;15510;52.512;13.300;2022-07-03T04:49:42;19.70;99.90
28244;DHT22;15510;52.512;13.300;2022-07-03T04:52:08;19.70;99.90
28244;DHT22;15510;52.512;13.300;2022-07-03T04:54:34;19.70;99.90
28244;DHT22;15510;52.512;13.300;2022-07-03T04:57:01;19.80;99.90
28244;DHT22;15510;52.512;13.300;2022-07-03T04:59:27;19.90;99.90
28244;DHT22;15510;52.512;13.300;2022-07-03T05:01:52;19.90;99.90
28244;DHT22;15510;52.512;13.300;2022-07-03T05:04:18;19.90;99.90
28244;DHT22;15510;52.512;13.300;2022-07-03T05:06:44;20.00;99.90
28244;DHT22;15510;52.512;13.300;2022-07-03T05:09:10;20.00;99.90
28244;DHT22;15510;52.512;13.300;2022-07-03T05:11:35;20.10;99.90
28244;DHT22;15510;52.512;13.300;2022-07-03T05:14:02;20.10;99.90
28244;DHT22;15510;52.512;13.300;2022-07-03T05:16:28;20.10;99.90
28244;DHT22;15510;52.512;13.300;2022-07-03T05:18:54;20.10;99.90
28244;DHT22;15510;52.512;13.300;2022-07-03T05:21:20;20.20;99.90
28244;DHT22;15510;52.512;13.300;2022-07-03T05:23:46;20.20;99.90
28244;DHT22;15510;52.512;13.300;2022-07-03T05:26:11;20.20;99.90
28244;DHT22;15510;52.512;13.300;2022-07-03T05:28:37;20.30;99.90
28244;DHT22;15510;52.512;13.300;2022-07-03T05:31:03;20.40;99.90
28244;DHT22;15510;52.512;13.300;2022-07-03T05:33:29;20.40;99.90
28244;DHT22;15510;52.512;13.300;2022-07-03T05:35:58;20.60;99.90
28244;DHT22;15510;52.512;13.300;2022-07-03T05:38:24;20.80;99.90
28244;DHT22;15510;52.512;13.300;2022-07-03T05:41:08;20.90;99.90
28244;DHT22;15510;52.512;13.300;2022-07-03T05:43:34;20.90;99.90
28244;DHT22;15510;52.512;13.300;2022-07-03T05:45:59;20.90;99.90
28244;DHT22;15510;52.512;13.300;2022-07-03T05:48:25;21.00;99.90
28244;DHT22;15510;52.512;13.300;2022-07-03T05:50:52;21.00;99.90
28244;DHT22;15510;52.512;13.300;2022-07-03T05:53:17;21.00;99.90
28244;DHT22;15510;52.512;13.300;2022-07-03T05:55:43;21.10;99.90
28244;DHT22;15510;52.512;13.300;2022-07-03T05:58:09;21.10;99.90
28244;DHT22;15510;52.512;13.300;2022-07-03T06:00:34;21.20;99.90
28244;DHT22;15510;52.512;13.300;2022-07-03T06:03:00;21.30;99.90
28244;DHT22;15510;52.512;13.300;2022-07-03T06:05:28;21.20;99.90
28244;DHT22;15510;52.512;13.300;2022-07-03T06:07:54;21.30;99.90
28244;DHT22;15510;52.512;13.300;2022-07-03T06:10:20;21.40;99.90
28244;DHT22;15510;52.512;13.300;2022-07-03T06:12:45;21.50;99.90
28244;DHT22;15510;52.512;13.300;2022-07-03T06:15:11;21.50;99.90
28244;DHT22;15510;52.512;13.300;2022-07-03T06:17:37;21.60;99.90
28244;DHT22;15510;52.512;13.300;2022-07-03T06:20:06;21.70;99.90
28244;DHT22;15510;52.512;13.300;2022-07-03T06:22:33;21.70;99.90
28244;DHT22;15510;52.512;13.300;2022-07-03T06:24:59;21.80;99.90
28244;DHT22;15510;52.512;13.300;2022-07-03T06:27:25;21.90;99.90
28244;DHT22;15510;52.512;13.300;2022-07-03T06:29:50;21.90;99.90
28244;DHT22;15510;52.512;13.300;2022-07-03T06:32:17;22.10;99.90
28244;DHT22;15510;52.512;13.300;2022-07-03T06:34:43;22.10;99.60
28244;DHT22;15510;52.512;13.300;2022-07-03T06:37:09;22.20;99.10
28244;DHT22;15510;52.512;13.300;2022-07-03T06:39:34;22.20;99.80
28244;DHT22;15510;52.512;13.300;2022-07-03T06:42:00;22.30;99.00
28244;DHT22;15510;52.512;13.300;2022-07-03T06:44:26;22.30;99.10
28244;DHT22;15510;52.512;13.300;2022-07-03T06:46:53;22.30;98.90
28244;DHT22;15510;52.512;13.300;2022-07-03T06:49:18;22.40;98.80
28244;DHT22;15510;52.512;13.300;2022-07-03T06:51:44;22.40;98.80
28244;DHT22;15510;52.512;13.300;2022-07-03T06:54:10;22.50;98.40
28244;DHT22;15510;52.512;13.300;2022-07-03T06:56:35;22.50;97.80
28244;DHT22;15510;52.512;13.300;2022-07-03T06:59:01;22.60;98.30
28244;DHT22;15510;52.512;13.300;2022-07-03T07:01:27;22.60;98.00
28244;DHT22;15510;52.512;13.300;2022-07-03T07:03:52;22.70;98.40
28244;DHT22;15510;52.512;13.300;2022-07-03T07:06:18;22.70;97.80
28244;DHT22;15510;52.512;13.300;2022-07-03T07:08:44;22.80;98.00
28244;DHT22;15510;52.512;13.300;2022-07-03T07:11:09;22.80;97.90
28244;DHT22;15510;52.512;13.300;2022-07-03T07:13:35;22.90;97.00
28244;DHT22;15510;52.512;13.300;2022-07-03T07:16:00;23.00;97.00
28244;DHT22;15510;52.512;13.300;2022-07-03T07:18:26;23.10;96.80
28244;DHT22;15510;52.512;13.300;2022-07-03T07:20:52;23.10;96.60
28244;DHT22;15510;52.512;13.300;2022-07-03T07:23:18;23.20;96.80
28244;DHT22;15510;52.512;13.300;2022-07-03T07:25:44;23.30;96.50
28244;DHT22;15510;52.512;13.300;2022-07-03T07:28:10;23.40;96.10
28244;DHT22;15510;52.512;13.300;2022-07-03T07:30:36;23.40;95.70
28244;DHT22;15510;52.512;13.300;2022-07-03T07:33:02;23.50;95.70
28244;DHT22;15510;52.512;13.300;2022-07-03T07:35:27;23.50;95.50
28244;DHT22;15510;52.512;13.300;2022-07-03T07:37:53;23.60;95.30
28244;DHT22;15510;52.512;13.300;2022-07-03T07:40:18;23.60;95.30
28244;DHT22;15510;52.512;13.300;2022-07-03T07:42:44;23.70;95.30
28244;DHT22;15510;52.512;13.300;2022-07-03T07:45:10;23.80;95.40
28244;DHT22;15510;52.512;13.300;2022-07-03T07:47:36;23.90;94.90
28244;DHT22;15510;52.512;13.300;2022-07-03T07:50:02;24.00;95.20
28244;DHT22;15510;52.512;13.300;2022-07-03T07:52:28;24.00;94.70
28244;DHT22;15510;52.512;13.300;2022-07-03T07:54:54;24.10;94.20
28244;DHT22;15510;52.512;13.300;2022-07-03T07:57:19;24.10;93.80
28244;DHT22;15510;52.512;13.300;2022-07-03T07:59:46;24.20;93.70
28244;DHT22;15510;52.512;13.300;2022-07-03T08:02:11;24.20;93.50
28244;DHT22;15510;52.512;13.300;2022-07-03T08:04:55;24.30;93.40
28244;DHT22;15510;52.512;13.300;2022-07-03T08:07:40;24.40;93.20
28244;DHT22;15510;52.512;13.300;2022-07-03T08:10:06;24.40;93.70
28244;DHT22;15510;52.512;13.300;2022-07-03T08:12:31;24.40;93.20
28244;DHT22;15510;52.512;13.300;2022-07-03T08:14:57;24.50;92.70
28244;DHT22;15510;52.512;13.300;2022-07-03T08:17:22;24.60;92.60
28244;DHT22;15510;52.512;13.300;2022-07-03T08:19:48;24.60;92.50
28244;DHT22;15510;52.512;13.300;2022-07-03T08:22:14;24.70;92.10
28244;DHT22;15510;52.512;13.300;2022-07-03T08:24:39;24.70;92.00
28244;DHT22;15510;52.512;13.300;2022-07-03T08:27:05;24.80;91.20
28244;DHT22;15510;52.512;13.300;2022-07-03T08:29:31;24.80;91.30
28244;DHT22;15510;52.512;13.300;2022-07-03T08:31:57;24.80;91.10
28244;DHT22;15510;52.512;13.300;2022-07-03T08:34:22;24.80;91.00
28244;DHT22;15510;52.512;13.300;2022-07-03T08:36:48;24.90;90.80
28244;DHT22;15510;52.512;13.300;2022-07-03T08:39:14;24.90;91.10
28244;DHT22;15510;52.512;13.300;2022-07-03T08:41:40;25.00;90.80
28244;DHT22;15510;52.512;13.300;2022-07-03T08:44:09;25.00;90.10
28244;DHT22;15510;52.512;13.300;2022-07-03T08:46:36;25.10;89.90
28244;DHT22;15510;52.512;13.300;2022-07-03T08:49:02;25.20;89.00
28244;DHT22;15510;52.512;13.300;2022-07-03T08:51:28;25.30;88.70
28244;DHT22;15510;52.512;13.300;2022-07-03T08:53:54;25.30;89.00
28244;DHT22;15510;52.512;13.300;2022-07-03T08:56:24;25.30;89.40
28244;DHT22;15510;52.512;13.300;2022-07-03T08:58:50;25.30;89.90
28244;DHT22;15510;52.512;13.300;2022-07-03T09:01:17;25.30;89.10
28244;DHT22;15510;52.512;13.300;2022-07-03T09:03:45;25.30;88.30
28244;DHT22;15510;52.512;13.300;2022-07-03T09:06:14;25.30;88.70
28244;DHT22;15510;52.512;13.300;2022-07-03T09:08:40;25.40;87.70
28244;DHT22;15510;52.512;13.300;2022-07-03T09:11:06;25.40;85.60
28244;DHT22;15510;52.512;13.300;2022-07-03T09:13:32;25.40;86.60
28244;DHT22;15510;52.512;13.300;2022-07-03T09:15:58;25.40;86.20
28244;DHT22;15510;52.512;13.300;2022-07-03T09:18:43;25.50;85.60
28244;DHT22;15510;52.512;13.300;2022-07-03T09:21:09;25.50;85.60
28244;DHT22;15510;52.512;13.300;2022-07-03T09:23:40;25.50;85.90
28244;DHT22;15510;52.512;13.300;2022-07-03T09:26:06;25.50;86.00
28244;DHT22;15510;52.512;13.300;2022-07-03T09:28:49;25.60;86.40
28244;DHT22;15510;52.512;13.300;2022-07-03T09:31:22;25.60;84.90
28244;DHT22;15510;52.512;13.300;2022-07-03T09:34:03;25.60;83.20
28244;DHT22;15510;52.512;13.300;2022-07-03T09:36:49;25.70;84.10
28244;DHT22;15510;52.512;13.300;2022-07-03T09:39:24;25.70;83.40
28244;DHT22;15510;52.512;13.300;2022-07-03T09:44:30;25.80;83.70
28244;DHT22;15510;52.512;13.300;2022-07-03T09:47:09;25.90;83.40
28244;DHT22;15510;52.512;13.300;2022-07-03T09:49:58;25.90;82.40
28244;DHT22;15510;52.512;13.300;2022-07-03T09:52:28;26.00;81.80
28244;DHT22;15510;52.512;13.300;2022-07-03T09:57:58;26.20;82.80
28244;DHT22;15510;52.512;13.300;2022-07-03T10:00:25;26.20;82.00
28244;DHT22;15510;52.512;13.300;2022-07-03T10:03:08;26.30;81.50
28244;DHT22;15510;52.512;13.300;2022-07-03T10:08:10;26.40;80.80
28244;DHT22;15510;52.512;13.300;2022-07-03T10:10:43;26.50;81.10
28244;DHT22;15510;52.512;13.300;2022-07-03T10:13:10;26.60;79.90
28244;DHT22;15510;52.512;13.300;2022-07-03T10:15:37;26.70;79.50
28244;DHT22;15510;52.512;13.300;2022-07-03T10:18:05;26.70;79.10
28244;DHT22;15510;52.512;13.300;2022-07-03T10:23:06;26.90;79.10
28244;DHT22;15510;52.512;13.300;2022-07-03T10:25:32;27.00;79.00
28244;DHT22;15510;52.512;13.300;2022-07-03T10:27:59;27.00;78.70
28244;DHT22;15510;52.512;13.300;2022-07-03T10:30:25;27.00;78.20
28244;DHT22;15510;52.512;13.300;2022-07-03T10:32:53;27.00;77.60
28244;DHT22;15510;52.512;13.300;2022-07-03T10:35:28;27.20;79.20
28244;DHT22;15510;52.512;13.300;2022-07-03T10:41:05;27.30;77.10
28244;DHT22;15510;52.512;13.300;2022-07-03T10:43:52;27.40;78.30
28244;DHT22;15510;52.512;13.300;2022-07-03T10:46:36;27.50;74.70
28244;DHT22;15510;52.512;13.300;2022-07-03T10:49:06;27.60;74.10
28244;DHT22;15510;52.512;13.300;2022-07-03T10:54:19;27.80;73.70
28244;DHT22;15510;52.512;13.300;2022-07-03T10:59:32;28.10;71.40
28244;DHT22;15510;52.512;13.300;2022-07-03T11:02:20;28.20;72.30
28244;DHT22;15510;52.512;13.300;2022-07-03T11:07:25;28.70;69.80
28244;DHT22;15510;52.512;13.300;2022-07-03T11:13:00;29.70;68.20
28244;DHT22;15510;52.512;13.300;2022-07-03T11:15:50;30.40;65.10
28244;DHT22;15510;52.512;13.300;2022-07-03T11:41:15;35.30;48.70
28244;DHT22;15510;52.512;13.300;2022-07-03T11:43:53;35.30;48.10
28244;DHT22;15510;52.512;13.300;2022-07-03T11:46:21;34.90;48.30
28244;DHT22;15510;52.512;13.300;2022-07-03T11:48:47;35.50;48.90
28244;DHT22;15510;52.512;13.300;2022-07-03T11:51:14;36.60;47.00
28244;DHT22;15510;52.512;13.300;2022-07-03T11:53:40;37.60;44.30
28244;DHT22;15510;52.512;13.300;2022-07-03T11:56:10;38.20;43.40
28244;DHT22;15510;52.512;13.300;2022-07-03T12:01:29;38.50;40.30
28244;DHT22;15510;52.512;13.300;2022-07-03T12:04:02;37.20;41.40
28244;DHT22;15510;52.512;13.300;2022-07-03T12:06:42;37.70;41.50
28244;DHT22;15510;52.512;13.300;2022-07-03T12:12:01;39.40;38.40
28244;DHT22;15510;52.512;13.300;2022-07-03T12:17:04;40.40;37.70
28244;DHT22;15510;52.512;13.300;2022-07-03T12:19:30;41.00;35.30
28244;DHT22;15510;52.512;13.300;2022-07-03T12:21:56;41.30;35.30
28244;DHT22;15510;52.512;13.300;2022-07-03T12:24:22;41.60;35.00
28244;DHT22;15510;52.512;13.300;2022-07-03T12:26:47;41.80;34.00
28244;DHT22;15510;52.512;13.300;2022-07-03T12:29:14;40.80;34.00
28244;DHT22;15510;52.512;13.300;2022-07-03T12:31:42;38.50;35.80
28244;DHT22;15510;52.512;13.300;2022-07-03T12:34:10;38.70;36.30
28244;DHT22;15510;52.512;13.300;2022-07-03T12:36:37;39.00;35.10
28244;DHT22;15510;52.512;13.300;2022-07-03T12:39:04;39.80;35.60
28244;DHT22;15510;52.512;13.300;2022-07-03T12:41:29;40.60;34.10
28244;DHT22;15510;52.512;13.300;2022-07-03T12:43:58;40.20;33.20
28244;DHT22;15510;52.512;13.300;2022-07-03T12:46:34;39.00;33.50
28244;DHT22;15510;52.512;13.300;2022-07-03T12:49:12;37.90;35.10
28244;DHT22;15510;52.512;13.300;2022-07-03T12:57:07;38.60;35.40
28244;DHT22;15510;52.512;13.300;2022-07-03T13:02:32;42.30;32.50
28244;DHT22;15510;52.512;13.300;2022-07-03T13:04:58;43.20;31.00
28244;DHT22;15510;52.512;13.300;2022-07-03T13:07:30;43.40;30.00
28244;DHT22;15510;52.512;13.300;2022-07-03T13:10:00;42.70;30.10
28244;DHT22;15510;52.512;13.300;2022-07-03T13:12:27;41.70;30.50
28244;DHT22;15510;52.512;13.300;2022-07-03T13:15:00;40.70;32.60
28244;DHT22;15510;52.512;13.300;2022-07-03T13:20:20;42.40;30.50
28244;DHT22;15510;52.512;13.300;2022-07-03T13:22:50;42.60;29.90
28244;DHT22;15510;52.512;13.300;2022-07-03T13:25:17;43.50;29.70
28244;DHT22;15510;52.512;13.300;2022-07-03T13:27:42;44.10;29.40
28244;DHT22;15510;52.512;13.300;2022-07-03T13:30:14;44.80;28.30
28244;DHT22;15510;52.512;13.300;2022-07-03T13:32:40;45.60;27.70
28244;DHT22;15510;52.512;13.300;2022-07-03T13:35:06;45.60;27.30
28244;DHT22;15510;52.512;13.300;2022-07-03T13:37:33;44.80;27.70
28244;DHT22;15510;52.512;13.300;2022-07-03T13:40:00;42.80;28.20
28244;DHT22;15510;52.512;13.300;2022-07-03T13:42:26;40.60;29.80
28244;DHT22;15510;52.512;13.300;2022-07-03T13:44:51;39.20;31.40
28244;DHT22;15510;52.512;13.300;2022-07-03T13:47:17;39.80;31.30
28244;DHT22;15510;52.512;13.300;2022-07-03T13:49:43;40.00;30.60
28244;DHT22;15510;52.512;13.300;2022-07-03T13:52:08;39.30;31.20
28244;DHT22;15510;52.512;13.300;2022-07-03T13:54:34;38.90;31.70
28244;DHT22;15510;52.512;13.300;2022-07-03T13:57:01;40.00;30.80
28244;DHT22;15510;52.512;13.300;2022-07-03T13:59:27;42.00;29.30
28244;DHT22;15510;52.512;13.300;2022-07-03T14:01:56;43.80;28.80
28244;DHT22;15510;52.512;13.300;2022-07-03T14:04:22;44.10;27.60
28244;DHT22;15510;52.512;13.300;2022-07-03T14:06:48;44.20;28.10
28244;DHT22;15510;52.512;13.300;2022-07-03T14:09:14;44.40;27.20
28244;DHT22;15510;52.512;13.300;2022-07-03T14:11:39;45.30;27.00
28244;DHT22;15510;52.512;13.300;2022-07-03T14:14:05;46.70;26.20
28244;DHT22;15510;52.512;13.300;2022-07-03T14:16:31;47.60;25.40
28244;DHT22;15510;52.512;13.300;2022-07-03T14:18:57;48.10;24.90
28244;DHT22;15510;52.512;13.300;2022-07-03T14:21:23;48.10;25.00
28244;DHT22;15510;52.512;13.300;2022-07-03T14:23:49;48.50;24.40
28244;DHT22;15510;52.512;13.300;2022-07-03T14:26:15;48.90;24.60
28244;DHT22;15510;52.512;13.300;2022-07-03T14:28:40;49.40;23.70
28244;DHT22;15510;52.512;13.300;2022-07-03T14:31:24;49.50;23.60
28244;DHT22;15510;52.512;13.300;2022-07-03T14:34:09;49.70;23.60
28244;DHT22;15510;52.512;13.300;2022-07-03T14:36:34;49.60;23.10
28244;DHT22;15510;52.512;13.300;2022-07-03T14:39:00;49.70;23.00
28244;DHT22;15510;52.512;13.300;2022-07-03T14:41:26;49.70;23.00
28244;DHT22;15510;52.512;13.300;2022-07-03T14:43:51;49.60;23.10
28244;DHT22;15510;52.512;13.300;2022-07-03T14:46:18;49.30;23.20
28244;DHT22;15510;52.512;13.300;2022-07-03T14:48:44;48.30;23.40
28244;DHT22;15510;52.512;13.300;2022-07-03T14:51:09;48.60;23.60
28244;DHT22;15510;52.512;13.300;2022-07-03T14:53:35;48.40;23.40
28244;DHT22;15510;52.512;13.300;2022-07-03T14:56:01;48.40;23.20
28244;DHT22;15510;52.512;13.300;2022-07-03T14:58:27;47.10;23.60
28244;DHT22;15510;52.512;13.300;2022-07-03T15:00:56;44.50;25.00
28244;DHT22;15510;52.512;13.300;2022-07-03T15:03:31;41.90;26.40
28244;DHT22;15510;52.512;13.300;2022-07-03T15:05:58;39.70;28.40
28244;DHT22;15510;52.512;13.300;2022-07-03T15:08:30;38.10;29.00
28244;DHT22;15510;52.512;13.300;2022-07-03T15:11:07;36.80;30.20
28244;DHT22;15510;52.512;13.300;2022-07-03T15:13:34;35.50;30.90
28244;DHT22;15510;52.512;13.300;2022-07-03T15:16:00;34.60;32.30
28244;DHT22;15510;52.512;13.300;2022-07-03T15:18:28;34.00;33.00
28244;DHT22;15510;52.512;13.300;2022-07-03T15:20:54;33.40;34.20
28244;DHT22;15510;52.512;13.300;2022-07-03T15:23:20;32.90;35.40
28244;DHT22;15510;52.512;13.300;2022-07-03T15:25:47;32.40;35.20
28244;DHT22;15510;52.512;13.300;2022-07-03T15:28:14;32.10;37.40
28244;DHT22;15510;52.512;13.300;2022-07-03T15:30:49;31.90;37.40
28244;DHT22;15510;52.512;13.300;2022-07-03T15:33:15;31.60;36.90
28244;DHT22;15510;52.512;13.300;2022-07-03T15:35:51;31.40;37.70
28244;DHT22;15510;52.512;13.300;2022-07-03T15:38:24;31.40;37.50
28244;DHT22;15510;52.512;13.300;2022-07-03T15:41:06;31.20;37.60
28244;DHT22;15510;52.512;13.300;2022-07-03T15:43:49;30.90;37.70
28244;DHT22;15510;52.512;13.300;2022-07-03T15:52:06;30.70;39.50
28244;DHT22;15510;52.512;13.300;2022-07-03T15:57:03;30.80;39.00
28244;DHT22;15510;52.512;13.300;2022-07-03T15:59:30;30.80;38.50
28244;DHT22;15510;52.512;13.300;2022-07-03T16:01:59;30.80;38.80
28244;DHT22;15510;52.512;13.300;2022-07-03T16:07:22;30.80;41.70
28244;DHT22;15510;52.512;13.300;2022-07-03T16:09:50;30.90;40.40
28244;DHT22;15510;52.512;13.300;2022-07-03T16:12:16;31.00;40.10
28244;DHT22;15510;52.512;13.300;2022-07-03T16:14:49;31.10;39.00
28244;DHT22;15510;52.512;13.300;2022-07-03T16:17:20;31.10;39.20
28244;DHT22;15510;52.512;13.300;2022-07-03T16:19:48;31.10;39.90
28244;DHT22;15510;52.512;13.300;2022-07-03T16:22:15;31.10;40.00
28244;DHT22;15510;52.512;13.300;2022-07-03T16:24:41;31.00;41.40
28244;DHT22;15510;52.512;13.300;2022-07-03T16:27:11;30.90;40.00
28244;DHT22;15510;52.512;13.300;2022-07-03T16:29:37;30.80;41.60
28244;DHT22;15510;52.512;13.300;2022-07-03T16:32:03;30.60;40.30
28244;DHT22;15510;52.512;13.300;2022-07-03T16:34:38;30.50;42.00
28244;DHT22;15510;52.512;13.300;2022-07-03T16:37:08;30.30;41.90
28244;DHT22;15510;52.512;13.300;2022-07-03T16:39:38;30.20;41.90
28244;DHT22;15510;52.512;13.300;2022-07-03T16:42:05;30.10;42.40
28244;DHT22;15510;52.512;13.300;2022-07-03T16:44:32;30.00;42.10
28244;DHT22;15510;52.512;13.300;2022-07-03T16:46:59;29.90;40.60
28244;DHT22;15510;52.512;13.300;2022-07-03T16:49:30;29.70;44.10
28244;DHT22;15510;52.512;13.300;2022-07-03T16:52:02;29.70;41.30
28244;DHT22;15510;52.512;13.300;2022-07-03T16:54:29;29.70;42.90
28244;DHT22;15510;52.512;13.300;2022-07-03T16:56:56;29.60;42.70
28244;DHT22;15510;52.512;13.300;2022-07-03T16:59:24;29.50;43.00